Time,TemperatureF,DewpointF,PressureIn,WindDirection,WindDirectionDegrees,WindSpeedMPH,WindSpeedGustMPH,Humidity,HourlyPrecipIn,Conditions,Clouds,dailyrainin,SoftwareType,DateUTC
2013-03-03 00:02:00,22.0,15.0,30.15,NW,304,3.0,8.0,74,0.00,,,0.00,,2013-03-03 06:02:00,
2013-03-03 00:11:00,22.0,15.0,30.15,NW,304,3.0,8.0,74,0.00,,,0.00,,2013-03-03 06:11:00,
2013-03-03 00:21:00,22.0,15.0,30.15,NW,307,3.0,10.0,74,0.00,,,0.00,,2013-03-03 06:21:00,
2013-03-03 00:31:00,21.0,14.0,30.15,NW,310,6.0,10.0,75,0.00,,,0.00,,2013-03-03 06:31:00,
2013-03-03 00:42:00,21.0,14.0,30.15,NW,310,6.0,10.0,75,0.00,,,0.00,,2013-03-03 06:42:00,
2013-03-03 00:52:00,21.0,15.0,30.15,WNW,301,8.0,10.0,76,0.00,,,0.00,,2013-03-03 06:52:00,
2013-03-03 01:01:00,21.0,15.0,30.14,NW,310,7.0,12.0,76,0.00,,,0.00,,2013-03-03 07:01:00,
2013-03-03 01:11:00,21.0,15.0,30.14,NW,310,7.0,12.0,76,0.00,,,0.00,,2013-03-03 07:11:00,
2013-03-03 01:21:00,21.0,15.0,30.14,WNW,299,4.0,15.0,77,0.00,,,0.00,,2013-03-03 07:21:00,
2013-03-03 01:31:00,21.0,15.0,30.14,NW,307,4.0,6.0,77,0.00,,,0.00,,2013-03-03 07:31:00,
2013-03-03 01:42:00,21.0,15.0,30.14,NW,307,4.0,6.0,77,0.00,,,0.00,,2013-03-03 07:42:00,
2013-03-03 01:52:00,20.0,14.0,30.14,WNW,296,1.0,6.0,78,0.00,,,0.00,,2013-03-03 07:52:00,
2013-03-03 02:01:00,20.0,14.0,30.14,WNW,296,1.0,3.0,78,0.00,,,0.00,,2013-03-03 08:01:00,
2013-03-03 02:11:00,20.0,14.0,30.14,WNW,296,1.0,3.0,78,0.00,,,0.00,,2013-03-03 08:11:00,
2013-03-03 02:21:00,20.0,15.0,30.13,WNW,301,0.0,5.0,79,0.00,,,0.00,,2013-03-03 08:21:00,
2013-03-03 02:31:00,20.0,15.0,30.12,WNW,301,1.0,5.0,79,0.00,,,0.00,,2013-03-03 08:31:00,
2013-03-03 02:41:00,20.0,15.0,30.12,WNW,301,1.0,5.0,79,0.00,,,0.00,,2013-03-03 08:41:00,
2013-03-03 02:54:00,19.0,14.0,30.12,WNW,301,0.0,1.0,79,0.00,,,0.00,,2013-03-03 08:54:00,
2013-03-03 03:01:00,19.0,14.0,30.11,WNW,301,0.0,0.0,79,0.00,,,0.00,,2013-03-03 09:01:00,
2013-03-03 03:11:00,19.0,14.0,30.11,WNW,301,0.0,0.0,79,0.00,,,0.00,,2013-03-03 09:11:00,
2013-03-03 03:21:00,19.0,14.0,30.11,WNW,301,1.0,1.0,81,0.00,,,0.00,,2013-03-03 09:21:00,
2013-03-03 03:32:00,19.0,14.0,30.11,WNW,301,0.0,1.0,81,0.00,,,0.00,,2013-03-03 09:32:00,
2013-03-03 03:41:00,19.0,14.0,30.11,WNW,301,0.0,1.0,81,0.00,,,0.00,,2013-03-03 09:41:00,
2013-03-03 03:52:00,18.0,13.0,30.12,WNW,300,1.0,5.0,82,0.00,,,0.00,,2013-03-03 09:52:00,
2013-03-03 04:01:00,19.0,14.0,30.11,West,264,2.0,6.0,82,0.00,,,0.00,,2013-03-03 10:01:00,
2013-03-03 04:11:00,19.0,14.0,30.11,West,264,2.0,6.0,82,0.00,,,0.00,,2013-03-03 10:11:00,
2013-03-03 04:21:00,18.0,13.0,30.11,West,267,2.0,8.0,81,0.00,,,0.00,,2013-03-03 10:21:00,
2013-03-03 04:32:00,18.0,13.0,30.11,West,271,3.0,8.0,81,0.00,,,0.00,,2013-03-03 10:32:00,
2013-03-03 04:42:00,18.0,13.0,30.11,West,271,3.0,8.0,81,0.00,,,0.00,,2013-03-03 10:42:00,
2013-03-03 04:52:00,18.0,13.0,30.11,West,270,1.0,6.0,82,0.00,,,0.00,,2013-03-03 10:52:00,
2013-03-03 05:01:00,18.0,13.0,30.11,West,270,1.0,6.0,82,0.00,,,0.00,,2013-03-03 11:01:00,
2013-03-03 05:11:00,18.0,13.0,30.11,West,270,1.0,6.0,82,0.00,,,0.00,,2013-03-03 11:11:00,
2013-03-03 05:21:00,18.0,13.0,30.12,West,270,1.0,1.0,82,0.00,,,0.00,,2013-03-03 11:21:00,
2013-03-03 05:32:00,18.0,13.0,30.12,West,270,0.0,3.0,82,0.00,,,0.00,,2013-03-03 11:32:00,
2013-03-03 05:42:00,18.0,13.0,30.12,West,270,0.0,3.0,82,0.00,,,0.00,,2013-03-03 11:42:00,
2013-03-03 05:52:00,18.0,14.0,30.13,WNW,294,5.0,8.0,83,0.00,,,0.00,,2013-03-03 11:52:00,
2013-03-03 06:01:00,18.0,13.0,30.12,WNW,297,1.0,5.0,82,0.00,,,0.00,,2013-03-03 12:01:00,
2013-03-03 06:11:00,18.0,13.0,30.12,WNW,297,1.0,5.0,82,0.00,,,0.00,,2013-03-03 12:11:00,
2013-03-03 06:21:00,18.0,13.0,30.12,WNW,293,0.0,8.0,82,0.00,,,0.00,,2013-03-03 12:21:00,
2013-03-03 06:32:00,18.0,13.0,30.12,WNW,293,2.0,3.0,82,0.00,,,0.00,,2013-03-03 12:32:00,
2013-03-03 06:42:00,18.0,13.0,30.12,WNW,293,2.0,3.0,82,0.00,,,0.00,,2013-03-03 12:42:00,
2013-03-03 06:53:00,18.0,13.0,30.14,WNW,293,1.0,5.0,82,0.00,,,0.00,,2013-03-03 12:53:00,
2013-03-03 07:01:00,18.0,13.0,30.14,WNW,293,1.0,3.0,82,0.00,,,0.00,,2013-03-03 13:01:00,
2013-03-03 07:11:00,18.0,13.0,30.14,WNW,293,1.0,3.0,82,0.00,,,0.00,,2013-03-03 13:11:00,
2013-03-03 07:21:00,18.0,13.0,30.14,WNW,292,5.0,8.0,81,0.00,,,0.00,,2013-03-03 13:21:00,
2013-03-03 07:32:00,19.0,14.0,30.14,NW,322,5.0,8.0,80,0.00,,,0.00,,2013-03-03 13:32:00,
2013-03-03 07:42:00,19.0,14.0,30.14,NW,322,5.0,8.0,80,0.00,,,0.00,,2013-03-03 13:42:00,
2013-03-03 07:52:00,20.0,14.0,30.14,NNW,332,3.0,8.0,78,0.00,,,0.00,,2013-03-03 13:52:00,
2013-03-03 08:02:00,21.0,14.0,30.14,NW,304,8.0,14.0,75,0.00,,,0.00,,2013-03-03 14:02:00,
2013-03-03 08:11:00,21.0,14.0,30.14,NW,304,8.0,14.0,75,0.00,,,0.00,,2013-03-03 14:11:00,
2013-03-03 08:21:00,21.0,13.0,30.15,NNW,335,9.0,15.0,72,0.00,,,0.00,,2013-03-03 14:21:00,
2013-03-03 08:32:00,22.0,14.0,30.15,WNW,283,11.0,18.0,71,0.00,,,0.00,,2013-03-03 14:32:00,
2013-03-03 08:42:00,22.0,14.0,30.15,WNW,283,11.0,18.0,71,0.00,,,0.00,,2013-03-03 14:42:00,
2013-03-03 08:52:00,23.0,15.0,30.15,NNW,331,9.0,15.0,70,0.00,,,0.00,,2013-03-03 14:52:00,
2013-03-03 09:01:00,23.0,15.0,30.14,NW,312,10.0,16.0,70,0.00,,,0.00,,2013-03-03 15:01:00,
2013-03-03 09:11:00,23.0,15.0,30.14,NW,312,10.0,16.0,70,0.00,,,0.00,,2013-03-03 15:11:00,
2013-03-03 09:22:00,24.0,15.0,30.14,West,271,7.0,15.0,69,0.00,,,0.00,,2013-03-03 15:22:00,
2013-03-03 09:32:00,24.0,15.0,30.14,NNW,348,6.0,10.0,69,0.00,,,0.00,,2013-03-03 15:32:00,
2013-03-03 09:42:00,24.0,15.0,30.14,NNW,348,6.0,10.0,69,0.00,,,0.00,,2013-03-03 15:42:00,
2013-03-03 09:52:00,25.0,15.0,30.13,WNW,302,12.0,21.0,66,0.00,,,0.00,,2013-03-03 15:52:00,
2013-03-03 10:01:00,26.0,16.0,30.13,NW,315,8.0,12.0,66,0.00,,,0.00,,2013-03-03 16:01:00,
2013-03-03 10:12:00,26.0,16.0,30.13,NW,315,8.0,12.0,66,0.00,,,0.00,,2013-03-03 16:12:00,
2013-03-03 10:21:00,27.0,17.0,30.13,WNW,292,9.0,14.0,65,0.00,,,0.00,,2013-03-03 16:21:00,
2013-03-03 10:32:00,27.0,16.0,30.13,NW,307,9.0,15.0,63,0.00,,,0.00,,2013-03-03 16:32:00,
2013-03-03 10:42:00,27.0,16.0,30.13,NW,307,9.0,15.0,63,0.00,,,0.00,,2013-03-03 16:42:00,
2013-03-03 10:52:00,28.0,17.0,30.13,WNW,289,9.0,16.0,63,0.00,,,0.00,,2013-03-03 16:52:00,
2013-03-03 11:01:00,28.0,17.0,30.12,North,4,5.0,9.0,62,0.00,,,0.00,,2013-03-03 17:01:00,
2013-03-03 11:11:00,29.0,17.0,30.12,NNW,348,1.0,12.0,61,0.01,,,0.01,,2013-03-03 17:11:00,
2013-03-03 11:22:00,29.0,17.0,30.12,NNW,348,1.0,12.0,61,0.01,,,0.01,,2013-03-03 17:22:00,
2013-03-03 11:32:00,30.0,18.0,30.11,West,279,6.0,10.0,61,0.01,,,0.01,,2013-03-03 17:32:00,
2013-03-03 11:42:00,30.0,18.0,30.11,West,279,6.0,10.0,61,0.01,,,0.01,,2013-03-03 17:42:00,
2013-03-03 11:52:00,30.0,17.0,30.11,NNE,31,6.0,10.0,58,0.01,,,0.01,,2013-03-03 17:52:00,
2013-03-03 12:01:00,30.0,17.0,30.11,NW,309,3.0,9.0,59,0.01,,,0.01,,2013-03-03 18:01:00,
2013-03-03 12:11:00,30.0,17.0,30.11,NW,309,3.0,9.0,59,0.01,,,0.01,,2013-03-03 18:11:00,
2013-03-03 12:21:00,31.0,19.0,30.10,NNW,336,7.0,14.0,60,0.00,,,0.01,,2013-03-03 18:21:00,
2013-03-03 12:32:00,31.0,18.0,30.09,ENE,74,7.0,9.0,57,0.00,,,0.01,,2013-03-03 18:32:00,
2013-03-03 12:42:00,31.0,18.0,30.09,ENE,74,7.0,9.0,57,0.00,,,0.01,,2013-03-03 18:42:00,
2013-03-03 12:52:00,32.0,19.0,30.09,NW,315,5.0,9.0,57,0.00,,,0.01,,2013-03-03 18:52:00,
2013-03-03 13:01:00,32.0,18.0,30.08,West,281,7.0,14.0,56,0.00,,,0.01,,2013-03-03 19:01:00,
2013-03-03 13:11:00,32.0,18.0,30.08,West,281,7.0,14.0,56,0.00,,,0.01,,2013-03-03 19:11:00,
2013-03-03 13:21:00,32.0,19.0,30.08,North,349,3.0,12.0,58,0.01,,,0.02,,2013-03-03 19:21:00,
2013-03-03 13:32:00,32.0,16.0,30.08,NNW,332,7.0,10.0,51,0.01,,,0.02,,2013-03-03 19:32:00,
2013-03-03 13:42:00,32.0,16.0,30.08,NNW,332,7.0,10.0,51,0.01,,,0.02,,2013-03-03 19:42:00,
2013-03-03 13:52:00,33.0,17.0,30.08,NNE,20,9.0,15.0,52,0.01,,,0.02,,2013-03-03 19:52:00,
2013-03-03 14:01:00,33.0,15.0,30.08,NW,323,3.0,16.0,47,0.01,,,0.02,,2013-03-03 20:01:00,
2013-03-03 14:11:00,33.0,15.0,30.08,NW,323,3.0,16.0,47,0.01,,,0.02,,2013-03-03 20:11:00,
2013-03-03 14:21:00,33.0,16.0,30.07,North,1,9.0,16.0,50,0.00,,,0.02,,2013-03-03 20:21:00,
2013-03-03 14:32:00,34.0,18.0,30.07,WNW,301,6.0,10.0,52,0.00,,,0.02,,2013-03-03 20:32:00,
2013-03-03 14:42:00,34.0,18.0,30.07,WNW,301,6.0,10.0,52,0.00,,,0.02,,2013-03-03 20:42:00,
2013-03-03 14:53:00,33.0,18.0,30.07,NW,316,5.0,15.0,53,0.00,,,0.02,,2013-03-03 20:53:00,
2013-03-03 15:01:00,33.0,18.0,30.07,NW,316,5.0,15.0,53,0.00,,,0.02,,2013-03-03 21:01:00,
2013-03-03 15:11:00,33.0,18.0,30.07,NW,316,5.0,15.0,53,0.00,,,0.02,,2013-03-03 21:11:00,
2013-03-03 15:22:00,33.0,16.0,30.06,NNW,335,8.0,16.0,50,0.00,,,0.02,,2013-03-03 21:22:00,
2013-03-03 15:32:00,33.0,17.0,30.07,NNW,337,9.0,12.0,52,0.00,,,0.02,,2013-03-03 21:32:00,
2013-03-03 15:40:00,34.0,15.0,30.06,West,264,8.0,9.0,45,0.00,,,0.02,,2013-03-03 21:40:00,
2013-03-03 15:42:00,33.0,17.0,30.07,NNW,337,9.0,12.0,52,0.00,,,0.02,,2013-03-03 21:42:00,
2013-03-03 15:52:00,34.0,16.0,30.06,NW,320,9.0,15.0,48,0.00,,,0.02,,2013-03-03 21:52:00,
2013-03-03 16:01:00,34.0,15.0,30.06,West,264,8.0,9.0,45,0.00,,,0.02,,2013-03-03 22:01:00,
2013-03-03 16:11:00,34.0,15.0,30.06,West,264,8.0,9.0,45,0.00,,,0.02,,2013-03-03 22:11:00,
2013-03-03 16:22:00,34.0,15.0,30.06,West,264,8.0,9.0,45,0.00,,,0.02,,2013-03-03 22:22:00,
2013-03-03 16:32:00,34.0,15.0,30.06,West,264,8.0,9.0,45,0.00,,,0.02,,2013-03-03 22:32:00,
2013-03-03 16:52:00,33.0,16.0,30.06,WNW,298,6.0,9.0,49,0.00,,,0.02,,2013-03-03 22:52:00,
2013-03-03 17:01:00,33.0,16.0,30.06,WNW,298,6.0,9.0,49,0.00,,,0.02,,2013-03-03 23:01:00,
2013-03-03 17:11:00,33.0,16.0,30.06,WNW,298,6.0,9.0,49,0.00,,,0.02,,2013-03-03 23:11:00,
2013-03-03 17:21:00,33.0,18.0,30.06,WNW,299,5.0,9.0,53,0.00,,,0.02,,2013-03-03 23:21:00,
2013-03-03 17:31:00,33.0,18.0,30.06,NW,311,2.0,9.0,54,0.00,,,0.02,,2013-03-03 23:31:00,
2013-03-03 17:42:00,33.0,18.0,30.06,NW,311,2.0,9.0,54,0.00,,,0.02,,2013-03-03 23:42:00,
2013-03-03 17:52:00,32.0,18.0,30.07,WNW,294,1.0,6.0,55,0.00,,,0.02,,2013-03-03 23:52:00,
2013-03-03 18:01:00,32.0,18.0,30.07,WNW,302,0.0,5.0,56,0.00,,,0.02,,2013-03-04 00:01:00,
2013-03-03 18:11:00,32.0,18.0,30.07,WNW,302,0.0,5.0,56,0.00,,,0.02,,2013-03-04 00:11:00,
2013-03-03 18:21:00,31.0,18.0,30.07,WNW,302,0.0,3.0,59,0.00,,,0.02,,2013-03-04 00:21:00,
2013-03-03 18:32:00,30.0,18.0,30.07,WNW,302,0.0,0.0,60,0.00,,,0.02,,2013-03-04 00:32:00,
2013-03-03 18:42:00,30.0,18.0,30.07,WNW,302,0.0,0.0,60,0.00,,,0.02,,2013-03-04 00:42:00,
2013-03-03 18:52:00,29.0,18.0,30.07,WNW,302,0.0,0.0,62,0.00,,,0.02,,2013-03-04 00:52:00,
2013-03-03 19:01:00,29.0,18.0,30.07,WNW,302,0.0,0.0,62,0.00,,,0.02,,2013-03-04 01:01:00,
2013-03-03 19:11:00,29.0,18.0,30.07,WNW,302,0.0,0.0,62,0.00,,,0.02,,2013-03-04 01:11:00,
2013-03-03 19:21:00,28.0,18.0,30.07,WNW,302,0.0,0.0,66,0.00,,,0.02,,2013-03-04 01:21:00,
2013-03-03 19:32:00,29.0,19.0,30.07,WNW,302,0.0,0.0,66,0.00,,,0.02,,2013-03-04 01:32:00,
2013-03-03 19:42:00,29.0,19.0,30.07,WNW,302,0.0,0.0,66,0.00,,,0.02,,2013-03-04 01:42:00,
2013-03-03 19:52:00,28.0,18.0,30.07,WNW,302,0.0,0.0,65,0.00,,,0.02,,2013-03-04 01:52:00,
2013-03-03 20:01:00,28.0,20.0,30.08,WNW,302,0.0,1.0,71,0.00,,,0.02,,2013-03-04 02:01:00,
2013-03-03 20:11:00,28.0,20.0,30.08,WNW,302,0.0,1.0,71,0.00,,,0.02,,2013-03-04 02:11:00,
2013-03-03 20:22:00,28.0,18.0,30.07,WNW,302,0.0,0.0,66,0.00,,,0.02,,2013-03-04 02:22:00,
2013-03-03 20:32:00,27.0,18.0,30.07,WNW,302,0.0,0.0,68,0.00,,,0.02,,2013-03-04 02:32:00,
2013-03-03 20:42:00,27.0,18.0,30.07,WNW,302,0.0,0.0,68,0.00,,,0.02,,2013-03-04 02:42:00,
2013-03-03 20:52:00,26.0,18.0,30.08,WNW,302,0.0,0.0,70,0.00,,,0.02,,2013-03-04 02:52:00,
2013-03-03 21:01:00,26.0,18.0,30.07,WNW,302,0.0,0.0,70,0.00,,,0.02,,2013-03-04 03:01:00,
2013-03-03 21:11:00,26.0,18.0,30.07,WNW,302,0.0,0.0,70,0.00,,,0.02,,2013-03-04 03:11:00,
2013-03-03 21:21:00,25.0,17.0,30.08,WNW,302,0.0,0.0,70,0.00,,,0.02,,2013-03-04 03:21:00,
2013-03-03 21:32:00,25.0,18.0,30.08,WNW,302,0.0,1.0,74,0.00,,,0.02,,2013-03-04 03:32:00,
2013-03-03 21:42:00,26.0,18.0,30.08,WNW,302,0.0,1.0,71,0.00,,,0.02,,2013-03-04 03:42:00,
2013-03-03 21:52:00,26.0,18.0,30.08,WNW,302,0.0,1.0,71,0.00,,,0.02,,2013-03-04 03:52:00,
2013-03-03 22:01:00,25.0,17.0,30.08,WNW,302,0.0,0.0,72,0.00,,,0.02,,2013-03-04 04:01:00,
2013-03-03 22:11:00,25.0,17.0,30.08,WNW,302,0.0,0.0,72,0.00,,,0.02,,2013-03-04 04:11:00,
2013-03-03 22:22:00,25.0,18.0,30.08,WNW,302,0.0,1.0,73,0.00,,,0.02,,2013-03-04 04:22:00,
2013-03-03 22:32:00,24.0,17.0,30.08,WNW,302,0.0,0.0,73,0.00,,,0.02,,2013-03-04 04:32:00,
2013-03-03 22:42:00,24.0,17.0,30.08,WNW,302,0.0,0.0,73,0.00,,,0.02,,2013-03-04 04:42:00,
2013-03-03 22:52:00,24.0,17.0,30.09,WNW,302,0.0,0.0,74,0.00,,,0.02,,2013-03-04 04:52:00,
2013-03-03 23:01:00,24.0,17.0,30.08,WNW,302,0.0,0.0,75,0.00,,,0.02,,2013-03-04 05:01:00,
2013-03-03 23:11:00,24.0,17.0,30.08,WNW,302,0.0,0.0,75,0.00,,,0.02,,2013-03-04 05:11:00,
2013-03-03 23:22:00,24.0,18.0,30.09,WNW,302,0.0,0.0,76,0.00,,,0.02,,2013-03-04 05:22:00,
2013-03-03 23:31:00,24.0,18.0,30.09,WNW,302,0.0,0.0,78,0.00,,,0.02,,2013-03-04 05:31:00,
2013-03-03 23:42:00,24.0,18.0,30.09,WNW,302,0.0,0.0,78,0.00,,,0.02,,2013-03-04 05:42:00,
2013-03-03 23:52:00,24.0,18.0,30.09,WNW,302,0.0,0.0,79,0.00,,,0.02,,2013-03-04 05:52:00,